Atlanta, Georgia
Traffic Map
Current Weather Conditions
Atlanta, Georgia
Broken Clouds
Broken Clouds
77°
Feels Like: 78°
Wind Chill: 77° Ceiling: 11000
Heat Index: 78° Visibility: 10mi
Dew Point: 75° Wind: 0mph
Humidity: 94% Direction: ° ()
Pressure: 30.23in Gusts: 0mph
Raw Report DataKATL 242052Z 00000KT 10SM FEW008 SCT070 BKN110 BKN200 25/24 A3023 RMK AO2 LTG DSNT S AND SW SLP227 LTG DSNT S AND SW CB DSNT S & SW RAE39 TSE07 P0003 60080 T02500239 58004 $
Traffic Incident Summary
Active as of:
Severity:
Category:
InformationThere was an issue retrieving the traffic information for this location. Please try a different location or try again shortly.
Advertisements
Track Severe Weather on mobile